Wrenshall, Minnesota
Current Conditions -  °F | °C
As of 4:16 AM on Saturday 25 Oct 2014 (Local Time) from KCOQ Reporting Station
Clear Clear  
Wind Chill: 52°   Ceiling: Unl
Heat Index: 52°   Visibility: 10mi
Dew Point: 32°   Wind: 12mph
Humidity: 47%   Direction: 270°W
Pressure: 29.85"   Gusts: 17mph
Location:  46.62°N, 92.38°W
Report Text: KCOQ 250916Z AUTO 27010G15KT 10SM CLR 11/00 A2985 RMK AO2
Loading
Personal Weather Stations






























Interactive Weather Map
Tropical Storm Tracking
New forecast layout! Learn more

10-Day Weather Forecast

Advertisements
Track Severe Weather on mobile